Jomo Kenyatta International Airport (NBO/HKJK)




Flight Aircraft Arriving
CPX973 B763
FAOR - O.R. Tambo International Airport
South Africa Johannesburg, South Africa
CPX977 B763
EBLG - Liège Airport
Belgium Liege, Belgium
CPX978 B763
HTZA - Abeid Amani Karume International Airport
Tanzania, United Republic Of Zanzibar, Tanzania, United Republic Of
Flight Aircraft Departing
CPX970 B763
EBLG - Liège Airport
Belgium Liege, Belgium
CPX975 B763
FAOR - O.R. Tambo International Airport
South Africa Johannesburg, South Africa
Airport Information
Location: Nairobi, KE
Coordinates: -1.31924 / 36.9278
Elevation:
Time Offset:
Local Time:
UTC Time:
Jet A Price: $0.84/lbs

Current Weather
METAR: HKJK 130200Z 21006KT 9999 BKN018 15/12 Q1021 NOSIG
TAF: TAF HKJK 122300Z 1300/1406 18005KT 9999 BKN016 BECMG 1308/1311 12010KT SCT024 BECMG 1320/1323 18005KT SCT019

Recent Arrivals
Date Flight Type Depart
03/29/2020 CPX970 B763 Liège Airport (EBLG)
03/19/2020 CPX975 B763 O.R. Tambo International Airport (FAOR)
03/18/2020 CPX970 B763 Liège Airport (EBLG)
11/28/2019 CPX970 B763 Liège Airport (EBLG)
11/12/2019 CPX970 B763 Liège Airport (EBLG)
Recent Departures
Date Flight Type Arrive
03/30/2020 CPX978 B763 Abeid Amani Karume International Airport (HTZA)
03/20/2020 CPX977 B763 Liège Airport (EBLG)
03/19/2020 CPX973 B763 O.R. Tambo International Airport (FAOR)
12/19/2019 CPX978 B763 Abeid Amani Karume International Airport (HTZA)
11/12/2019 CPX978 B763 Abeid Amani Karume International Airport (HTZA)